Fleetwood, New York
Current Conditions -  °F | °C
As of 7:51 AM on Sunday 23 Nov 2014 (Local Time) from KLGA Reporting Station
Broken Clouds Broken Clouds  
Wind Chill: 39°   Ceiling: 10000
Heat Index: 44°   Visibility: 10mi
Dew Point: 22°   Wind: 9mph
Humidity: 42%   Direction: 230°SW
Pressure: 30.22"   Gusts: NA
Location:  40.9243°N, 73.8256°W
Report Text: KLGA 231251Z 23008KT 10SM FEW047 SCT090 BKN100 BKN160 BKN250 07/M06 A3022 RMK AO2 SLP232 VCSH N T00671056
Loading
Personal Weather Stations






























Interactive Weather Map New forecast layout! Learn more

10-Day Weather Forecast

Advertisements
Track Severe Weather on mobile